Nanaimo Airport
CYCD : now visible

Airfield :











YOU CAN JOIN US ON...

 
LOGIN :

Register | Disclaimer

   EN    FR    IT 

 









Legend :    VFR   Marginal VFR   IFR   Intensive IFR   Very Intensive IFR
Visi :
Ceiling :
>= 8 km
>= 3000ft
5 to 8 km
1000 to 3000 ft
1500m to 5 km
500 to 1000 ft
800 to 1500m
200 to 500 ft
< 800m
< 200 ft
Symbols :   Thunderstorms  Fog  Heavy snow  Heavy precipitations  Wind > 20 kt






- Airport Elevation : 93 ft
- IATA code : YCD


CYCD - Nanaimo

CURRENT METAR :
  • 201400Z VRB02KT 30SM SCT200 BKN230 08/05 A3025 RMK CI4CI3 SLP248

EXPIRED METARs :
  • 201300Z 23003KT 180V240 30SM BKN240 06/04 A3025 RMK CI6 SLP246

TAF TAF CYCD
Valid from the 20 at 15:00 until the 21 at 03:00 UTC


201440Z 2015/2103 VRB03KT P6SM BKN230
BECMG 2016/2018 05007KT
FM201800 05007KT P6SM SCT030 BKN120
TEMPO 2018/2103 BKN030 RMK NXT FCST BY 201800Z
CZVR FIR / North America



MET'MAP, your aeronautical weather chart ! - Copyright ORBIFLY December 2007 - Disclaimer

ORBIFLY MET'MAP TEAM :

Programming & Development : Alexandra Zaïnal
Original concept : Baudouin d'Aumeries
Technical & hardware support : Manuel Goepfert
Assistance : Marc-Olivier Méhu




SOURCES & CREDITS :

   NOAA       Earth
Advisory